createdAt,value
2022-09-22T00:05:03.786Z,5.93
2022-09-22T00:10:07.796Z,6.05
2022-09-22T00:15:11.807Z,6.03
2022-09-22T00:20:17.726Z,6.60
2022-09-22T00:25:21.097Z,6.43
2022-09-22T00:30:25.012Z,6.57
2022-09-22T00:35:29.779Z,6.55
2022-09-22T00:40:33.347Z,6.10
2022-09-22T00:45:36.815Z,6.20
2022-09-22T00:50:42.049Z,6.45
2022-09-22T00:55:50.700Z,6.28
2022-09-22T01:00:54.378Z,5.97
2022-09-22T01:06:02.194Z,6.32
2022-09-22T01:11:06.548Z,6.25
2022-09-22T01:16:22.713Z,6.38
2022-09-22T01:21:41.725Z,6.22
2022-09-22T01:27:21.988Z,6.03
2022-09-22T01:32:32.393Z,6.35
2022-09-22T01:37:45.429Z,5.85
2022-09-22T01:42:53.808Z,7.53
2022-09-22T01:48:02.855Z,7.05
2022-09-22T01:53:11.318Z,6.63
2022-09-22T01:58:18.920Z,7.20
2022-09-22T02:03:28.886Z,7.60
2022-09-22T02:08:37.423Z,5.95
2022-09-22T02:13:41.411Z,6.32
2022-09-22T02:18:54.311Z,6.15
2022-09-22T02:23:57.728Z,7.00
2022-09-22T02:29:04.470Z,6.40
2022-09-22T02:34:09.857Z,6.22
2022-09-22T02:39:17.871Z,6.88
2022-09-22T02:44:26.271Z,7.28
2022-09-22T02:49:31.503Z,6.20
2022-09-22T02:54:34.913Z,6.55
2022-09-22T02:59:38.559Z,5.88
2022-09-22T03:04:43.261Z,6.15
2022-09-22T03:09:46.588Z,6.10
2022-09-22T03:14:49.969Z,5.97
2022-09-22T03:19:54.937Z,6.30
2022-09-22T03:24:58.290Z,6.57
2022-09-22T03:30:04.083Z,6.22
2022-09-22T03:35:10.167Z,6.10
2022-09-22T03:40:13.505Z,6.85
2022-09-22T03:45:17.731Z,6.50
2022-09-22T03:50:22.932Z,6.18
2022-09-22T03:55:26.439Z,6.22
2022-09-22T04:00:29.883Z,6.78
2022-09-22T04:05:35.122Z,6.47
2022-09-22T04:10:38.501Z,7.07
2022-09-22T04:15:42.069Z,6.80
2022-09-22T04:20:46.793Z,6.18
2022-09-22T04:25:50.121Z,6.93
2022-09-22T04:30:53.558Z,6.63
2022-09-22T04:35:58.373Z,6.68
2022-09-22T04:41:02.476Z,6.75
2022-09-22T04:46:06.301Z,7.00
2022-09-22T04:51:11.089Z,6.75
2022-09-22T04:56:14.962Z,8.18
2022-09-22T05:01:18.373Z,8.55
2022-09-22T05:06:23.141Z,9.57
2022-09-22T05:11:26.477Z,9.63
2022-09-22T05:16:32.308Z,9.52
2022-09-22T05:21:37.331Z,12.00
2022-09-22T05:26:40.642Z,11.25
2022-09-22T05:31:44.191Z,11.27
2022-09-22T05:36:48.940Z,11.63
2022-09-22T05:41:52.579Z,11.18
2022-09-22T05:46:55.932Z,12.30
2022-09-22T05:52:00.830Z,12.82
2022-09-22T05:57:04.264Z,11.80
2022-09-22T06:02:23.855Z,11.68
2022-09-22T06:07:30.777Z,12.38
2022-09-22T06:12:34.157Z,12.48
2022-09-22T06:17:37.518Z,13.55
2022-09-22T06:22:42.497Z,13.05
2022-09-22T06:27:47.033Z,12.60
2022-09-22T06:32:55.230Z,15.15
2022-09-22T06:38:00.257Z,14.20
2022-09-22T06:43:10.724Z,13.63
2022-09-22T06:48:14.737Z,14.95
2022-09-22T06:53:21.683Z,15.80
2022-09-22T06:58:28.060Z,16.58
2022-09-22T07:03:33.216Z,15.68
2022-09-22T07:08:39.997Z,16.10
2022-09-22T07:13:45.644Z,17.98
2022-09-22T07:18:50.491Z,18.02
2022-09-22T07:23:57.306Z,17.92
2022-09-22T07:29:02.317Z,18.15
2022-09-22T07:34:07.073Z,18.23
2022-09-22T07:39:12.166Z,17.15
2022-09-22T07:44:33.915Z,17.67
2022-09-22T07:49:38.691Z,17.15
2022-09-22T07:54:43.371Z,18.20
2022-09-22T07:59:46.717Z,16.30
2022-09-22T08:04:50.147Z,15.23
2022-09-22T08:09:55.132Z,15.07
2022-09-22T08:14:58.674Z,13.38
2022-09-22T08:20:04.957Z,13.95
2022-09-22T08:25:12.840Z,13.05
2022-09-22T08:30:20.153Z,12.60
2022-09-22T08:35:24.277Z,11.45
2022-09-22T08:40:31.468Z,7.60
2022-09-22T08:45:39.324Z,8.45
2022-09-22T08:51:07.754Z,7.90
2022-09-22T08:56:22.245Z,5.75
2022-09-22T09:01:46.296Z,2.70
2022-09-22T09:06:56.674Z,2.58
2022-09-22T09:12:25.109Z,2.40
2022-09-22T09:17:31.601Z,3.10
2022-09-22T09:22:43.672Z,3.22
2022-09-22T09:27:57.309Z,3.45
2022-09-22T09:33:03.272Z,2.85
2022-09-22T09:38:12.351Z,2.95
2022-09-22T09:43:17.738Z,3.00
2022-09-22T09:48:34.798Z,3.55
2022-09-22T09:53:43.269Z,2.88
2022-09-22T09:59:14.017Z,1.70
2022-09-22T10:04:28.555Z,1.52
2022-09-22T10:09:32.392Z,1.42
2022-09-22T10:14:37.170Z,2.20
2022-09-22T10:19:40.575Z,1.40
2022-09-22T10:24:54.506Z,0.90
2022-09-22T10:30:24.625Z,1.10
2022-09-22T10:35:45.803Z,0.50
2022-09-22T10:40:57.420Z,1.00
2022-09-22T10:46:17.142Z,0.80
2022-09-22T10:51:33.169Z,0.90
2022-09-22T10:56:40.671Z,1.10
2022-09-22T11:02:00.432Z,1.20
2022-09-22T11:07:37.137Z,1.10
2022-09-22T11:12:50.118Z,1.63
2022-09-22T11:23:52.014Z,1.25
2022-09-22T11:29:07.833Z,1.25
2022-09-22T11:34:46.361Z,1.08
2022-09-22T11:40:10.895Z,0.80
2022-09-22T11:45:31.334Z,0.82
2022-09-22T11:50:53.139Z,1.38
2022-09-22T11:56:33.406Z,0.90
2022-09-22T12:01:40.240Z,0.70
2022-09-22T12:06:47.755Z,0.73
2022-09-22T12:11:55.963Z,0.70
2022-09-22T12:17:04.220Z,0.90
2022-09-22T12:22:15.885Z,0.93
2022-09-22T12:27:24.037Z,1.48
2022-09-22T12:32:33.047Z,0.80
2022-09-22T12:37:39.360Z,1.25
2022-09-22T12:42:49.586Z,0.73
2022-09-22T12:47:55.373Z,0.70
2022-09-22T12:53:04.233Z,1.27
2022-09-22T12:58:43.237Z,0.50
2022-09-22T13:03:50.851Z,1.10
2022-09-22T13:09:20.455Z,1.65
2022-09-22T13:15:13.118Z,1.13
2022-09-22T13:20:31.894Z,1.48
2022-09-22T13:25:35.613Z,0.82
2022-09-22T13:30:40.573Z,0.70
2022-09-22T13:35:46.260Z,0.60
2022-09-22T13:40:51.115Z,0.75
2022-09-22T13:45:55.110Z,0.60
2022-09-22T13:51:03.407Z,0.32
2022-09-22T13:56:15.928Z,0.60
2022-09-22T14:01:23.844Z,0.60
2022-09-22T14:06:32.229Z,0.80
2022-09-22T14:11:37.987Z,0.60
2022-09-22T14:16:49.429Z,0.40
2022-09-22T14:21:58.021Z,0.50
2022-09-22T14:27:04.507Z,0.68
2022-09-22T14:32:13.112Z,0.90
2022-09-22T14:37:24.863Z,0.60
2022-09-22T14:42:30.221Z,0.77
2022-09-22T14:47:39.414Z,0.65
2022-09-22T14:52:54.427Z,0.50
2022-09-22T14:58:02.118Z,0.52
2022-09-22T15:03:16.339Z,0.40
2022-09-22T15:08:27.715Z,0.57
2022-09-22T15:13:38.389Z,0.70
2022-09-22T15:18:41.782Z,0.80
2022-09-22T15:23:49.308Z,0.40
2022-09-22T15:28:55.242Z,0.52
2022-09-22T15:34:03.092Z,0.45
2022-09-22T15:39:14.341Z,0.50
2022-09-22T15:44:18.381Z,0.77
2022-09-22T15:49:26.351Z,0.80
2022-09-22T15:54:32.621Z,0.60
2022-09-22T15:59:38.917Z,0.57
2022-09-22T16:04:42.295Z,0.95
2022-09-22T16:09:47.732Z,1.05
2022-09-22T16:14:52.163Z,0.60
2022-09-22T16:19:57.262Z,0.85
2022-09-22T16:25:03.138Z,0.70
2022-09-22T16:30:08.879Z,0.73
2022-09-22T16:35:14.269Z,1.15
2022-09-22T16:40:20.030Z,0.95
2022-09-22T16:45:38.024Z,0.70
2022-09-22T16:50:46.367Z,1.05
2022-09-22T16:55:51.714Z,1.00
2022-09-22T17:00:56.075Z,1.23
2022-09-22T17:06:05.615Z,1.40
2022-09-22T17:11:12.246Z,1.38
2022-09-22T17:16:22.275Z,1.20
2022-09-22T17:21:26.042Z,2.58
2022-09-22T17:26:33.361Z,2.63
2022-09-22T17:31:37.021Z,2.83
2022-09-22T17:36:40.383Z,2.92
2022-09-22T17:41:47.079Z,5.68
2022-09-22T17:47:09.605Z,2.58
2022-09-22T17:52:30.507Z,2.17
2022-09-22T17:57:37.755Z,2.40
2022-09-22T18:02:41.701Z,2.50
2022-09-22T18:07:45.858Z,2.22
2022-09-22T18:12:55.986Z,2.25
2022-09-22T18:17:59.995Z,1.73
2022-09-22T18:23:03.774Z,3.78
2022-09-22T18:28:08.674Z,2.53
2022-09-22T18:33:13.405Z,4.45
2022-09-22T18:38:16.808Z,3.88
2022-09-22T18:43:21.477Z,3.65
2022-09-22T18:48:25.063Z,3.28
2022-09-22T18:53:28.371Z,3.42
2022-09-22T18:58:33.789Z,4.28
2022-09-22T19:03:37.155Z,6.40
2022-09-22T19:08:40.553Z,6.25
2022-09-22T19:13:45.461Z,6.40
2022-09-22T19:18:49.993Z,8.00
2022-09-22T19:23:53.978Z,9.27
2022-09-22T19:28:58.941Z,8.50
2022-09-22T19:34:04.587Z,7.28
2022-09-22T19:39:09.353Z,8.68
2022-09-22T19:44:15.508Z,7.65
2022-09-22T19:49:19.345Z,8.60
2022-09-22T19:54:22.789Z,10.20
2022-09-22T19:59:27.832Z,9.45
2022-09-22T20:04:34.315Z,9.82
2022-09-22T20:09:38.247Z,12.23
2022-09-22T20:14:43.155Z,10.20
2022-09-22T20:19:47.864Z,9.27
2022-09-22T20:24:55.631Z,12.13
2022-09-22T20:30:01.610Z,11.27
2022-09-22T20:35:09.922Z,11.00
2022-09-22T20:40:16.184Z,12.23
2022-09-22T20:45:22.989Z,9.05
2022-09-22T20:50:26.453Z,8.50
2022-09-22T20:55:30.011Z,9.25
2022-09-22T21:00:35.106Z,9.35
2022-09-22T21:05:39.242Z,9.38
2022-09-22T21:10:43.370Z,9.80
2022-09-22T21:15:48.672Z,9.27
2022-09-22T21:20:55.841Z,8.35
2022-09-22T21:26:01.809Z,9.00
2022-09-22T21:31:15.574Z,13.70
2022-09-22T21:36:22.572Z,12.30
2022-09-22T21:41:28.149Z,14.25
2022-09-22T21:46:34.792Z,11.75
2022-09-22T21:51:42.146Z,11.38
2022-09-22T21:56:48.341Z,10.55
2022-09-22T22:01:53.103Z,9.65
2022-09-22T22:06:56.419Z,11.00
2022-09-22T22:11:59.827Z,9.60
2022-09-22T22:17:06.787Z,9.15
2022-09-22T22:22:11.417Z,8.05
2022-09-22T22:27:16.828Z,7.40
2022-09-22T22:32:21.823Z,8.93
2022-09-22T22:37:25.359Z,9.73
2022-09-22T22:42:28.692Z,10.25
2022-09-22T22:47:34.227Z,10.50
2022-09-22T22:52:40.039Z,10.18
2022-09-22T22:57:43.333Z,10.45
2022-09-22T23:02:48.214Z,11.77
2022-09-22T23:07:53.559Z,11.90
2022-09-22T23:12:56.950Z,11.25
2022-09-22T23:18:01.640Z,12.35
2022-09-22T23:23:05.194Z,10.93
2022-09-22T23:28:08.890Z,10.93
2022-09-22T23:33:14.461Z,10.77
2022-09-22T23:38:17.792Z,10.18
2022-09-22T23:43:21.554Z,11.70
2022-09-22T23:48:29.298Z,11.23
2022-09-22T23:53:34.825Z,10.85
2022-09-22T23:58:39.122Z,10.07
